Terminal Aerodrome Forecast
Issued by NWS

Current Version | Previous Version | Graphics & Text | Print | Product List | Glossary On
Versions: 1 2 3 4 5 6 7 8 9 10 11 12 13 14 15 16 17 18 19 20 21 22 23 24 25 26 27 28 29 30 31 32 33 34 35 36
000
FTUS41 KRNK 241139
TAFLWB
TAF
KLWB 241139Z 2412/2512 02006KT P6SM -RA BKN012 OVC035 WS020/20049KT
     FM241900 05005KT P6SM OVC018 WS016/21038KT
     FM242300 20006KT 5SM -SHRA OVC015
     FM250200 26009KT P6SM OVC020
     FM250700 29010G18KT P6SM OVC025=

USA.gov is the U.S. government's official web portal to all federal, state and local government web resources and services.